sensor_id;sensor_type;location;lat;lon;timestamp;temperature;humidity
68648;SHT31;55632;51.962;16.116;2023-08-07T00:02:38;14.61;91.79
68648;SHT31;55632;51.962;16.116;2023-08-07T00:07:38;14.59;91.79
68648;SHT31;55632;51.962;16.116;2023-08-07T00:12:40;14.56;91.78
68648;SHT31;55632;51.962;16.116;2023-08-07T00:17:41;14.51;91.74
68648;SHT31;55632;51.962;16.116;2023-08-07T00:22:43;14.46;91.73
68648;SHT31;55632;51.962;16.116;2023-08-07T00:27:44;14.45;91.79
68648;SHT31;55632;51.962;16.116;2023-08-07T00:32:45;14.42;91.80
68648;SHT31;55632;51.962;16.116;2023-08-07T00:37:45;14.39;91.89
68648;SHT31;55632;51.962;16.116;2023-08-07T00:42:46;14.34;91.91
68648;SHT31;55632;51.962;16.116;2023-08-07T00:47:48;14.31;91.97
68648;SHT31;55632;51.962;16.116;2023-08-07T00:52:49;14.29;91.98
68648;SHT31;55632;51.962;16.116;2023-08-07T00:57:53;14.27;92.01
68648;SHT31;55632;51.962;16.116;2023-08-07T01:02:55;14.25;92.02
68648;SHT31;55632;51.962;16.116;2023-08-07T01:07:57;14.27;92.04
68648;SHT31;55632;51.962;16.116;2023-08-07T01:13:05;14.27;92.02
68648;SHT31;55632;51.962;16.116;2023-08-07T01:18:13;14.27;92.02
68648;SHT31;55632;51.962;16.116;2023-08-07T01:23:24;14.27;91.95
68648;SHT31;55632;51.962;16.116;2023-08-07T01:28:36;14.25;91.84
68648;SHT31;55632;51.962;16.116;2023-08-07T01:33:54;14.24;91.65
68648;SHT31;55632;51.962;16.116;2023-08-07T01:39:03;14.22;91.57
68648;SHT31;55632;51.962;16.116;2023-08-07T01:44:08;14.21;91.36
68648;SHT31;55632;51.962;16.116;2023-08-07T01:49:09;14.20;91.31
68648;SHT31;55632;51.962;16.116;2023-08-07T01:54:13;14.21;91.26
68648;SHT31;55632;51.962;16.116;2023-08-07T01:59:15;14.20;91.13
68648;SHT31;55632;51.962;16.116;2023-08-07T02:04:16;14.16;90.98
68648;SHT31;55632;51.962;16.116;2023-08-07T02:09:22;14.18;90.82
68648;SHT31;55632;51.962;16.116;2023-08-07T02:14:22;14.18;90.63
68648;SHT31;55632;51.962;16.116;2023-08-07T02:19:26;14.16;90.47
68648;SHT31;55632;51.962;16.116;2023-08-07T02:24:26;14.11;90.33
68648;SHT31;55632;51.962;16.116;2023-08-07T02:29:27;14.09;90.26
68648;SHT31;55632;51.962;16.116;2023-08-07T02:34:31;14.09;90.25
68648;SHT31;55632;51.962;16.116;2023-08-07T02:39:32;14.06;90.17
68648;SHT31;55632;51.962;16.116;2023-08-07T02:44:33;14.04;90.10
68648;SHT31;55632;51.962;16.116;2023-08-07T02:49:33;14.01;90.04
68648;SHT31;55632;51.962;16.116;2023-08-07T02:54:35;13.96;89.97
68648;SHT31;55632;51.962;16.116;2023-08-07T02:59:36;13.94;89.84
68648;SHT31;55632;51.962;16.116;2023-08-07T03:04:37;13.94;89.67
68648;SHT31;55632;51.962;16.116;2023-08-07T03:09:38;13.91;89.58
68648;SHT31;55632;51.962;16.116;2023-08-07T03:14:39;13.87;89.47
68648;SHT31;55632;51.962;16.116;2023-08-07T03:19:43;13.84;89.36
68648;SHT31;55632;51.962;16.116;2023-08-07T03:24:47;13.77;89.34
68648;SHT31;55632;51.962;16.116;2023-08-07T03:29:48;13.73;89.37
68648;SHT31;55632;51.962;16.116;2023-08-07T03:34:49;13.70;89.41
68648;SHT31;55632;51.962;16.116;2023-08-07T03:39:50;13.62;89.47
68648;SHT31;55632;51.962;16.116;2023-08-07T03:44:54;13.62;89.51
68648;SHT31;55632;51.962;16.116;2023-08-07T03:49:57;13.62;89.52
68648;SHT31;55632;51.962;16.116;2023-08-07T03:54:57;13.62;89.51
68648;SHT31;55632;51.962;16.116;2023-08-07T03:59:58;13.62;89.57
68648;SHT31;55632;51.962;16.116;2023-08-07T04:05:02;13.66;89.63
68648;SHT31;55632;51.962;16.116;2023-08-07T04:10:07;13.70;89.68
68648;SHT31;55632;51.962;16.116;2023-08-07T04:15:08;13.76;89.65
68648;SHT31;55632;51.962;16.116;2023-08-07T04:20:13;13.83;89.62
68648;SHT31;55632;51.962;16.116;2023-08-07T04:25:14;13.91;89.64
68648;SHT31;55632;51.962;16.116;2023-08-07T04:30:14;13.97;89.63
68648;SHT31;55632;51.962;16.116;2023-08-07T04:35:15;14.07;89.60
68648;SHT31;55632;51.962;16.116;2023-08-07T04:40:16;14.14;89.56
68648;SHT31;55632;51.962;16.116;2023-08-07T04:45:17;14.27;89.60
68648;SHT31;55632;51.962;16.116;2023-08-07T04:50:21;14.44;89.56
68648;SHT31;55632;51.962;16.116;2023-08-07T04:55:22;14.72;89.61
68648;SHT31;55632;51.962;16.116;2023-08-07T05:00:26;15.08;89.32
68648;SHT31;55632;51.962;16.116;2023-08-07T05:05:27;15.28;88.81
68648;SHT31;55632;51.962;16.116;2023-08-07T05:10:28;15.43;88.36
68648;SHT31;55632;51.962;16.116;2023-08-07T05:15:29;15.46;88.12
68648;SHT31;55632;51.962;16.116;2023-08-07T05:20:31;15.48;87.96
68648;SHT31;55632;51.962;16.116;2023-08-07T05:25:32;15.53;87.89
68648;SHT31;55632;51.962;16.116;2023-08-07T05:30:33;15.59;87.90
68648;SHT31;55632;51.962;16.116;2023-08-07T05:35:33;15.71;87.87
68648;SHT31;55632;51.962;16.116;2023-08-07T05:40:37;15.84;87.60
68648;SHT31;55632;51.962;16.116;2023-08-07T05:45:38;16.00;87.48
68648;SHT31;55632;51.962;16.116;2023-08-07T05:50:39;16.15;87.14
68648;SHT31;55632;51.962;16.116;2023-08-07T05:55:40;16.38;86.97
68648;SHT31;55632;51.962;16.116;2023-08-07T06:00:43;16.64;86.36
68648;SHT31;55632;51.962;16.116;2023-08-07T06:05:44;16.76;85.90
68648;SHT31;55632;51.962;16.116;2023-08-07T06:10:45;16.88;85.42
68648;SHT31;55632;51.962;16.116;2023-08-07T06:15:46;16.94;85.16
68648;SHT31;55632;51.962;16.116;2023-08-07T06:20:47;17.04;84.93
68648;SHT31;55632;51.962;16.116;2023-08-07T06:25:48;17.08;84.54
68648;SHT31;55632;51.962;16.116;2023-08-07T06:30:51;17.08;84.16
68648;SHT31;55632;51.962;16.116;2023-08-07T06:35:52;17.01;83.95
68648;SHT31;55632;51.962;16.116;2023-08-07T06:40:53;17.00;84.11
68648;SHT31;55632;51.962;16.116;2023-08-07T06:45:55;17.24;84.08
68648;SHT31;55632;51.962;16.116;2023-08-07T06:50:56;17.35;83.38
68648;SHT31;55632;51.962;16.116;2023-08-07T06:55:57;17.56;83.38
68648;SHT31;55632;51.962;16.116;2023-08-07T07:00:57;18.02;82.74
68648;SHT31;55632;51.962;16.116;2023-08-07T07:05:58;18.33;81.47
68648;SHT31;55632;51.962;16.116;2023-08-07T07:11:01;18.42;80.83
68648;SHT31;55632;51.962;16.116;2023-08-07T07:16:02;18.49;80.26
68648;SHT31;55632;51.962;16.116;2023-08-07T07:21:03;18.42;79.88
68648;SHT31;55632;51.962;16.116;2023-08-07T07:26:04;18.40;79.39
68648;SHT31;55632;51.962;16.116;2023-08-07T07:31:05;18.37;78.74
68648;SHT31;55632;51.962;16.116;2023-08-07T07:36:06;18.32;78.57
68648;SHT31;55632;51.962;16.116;2023-08-07T07:41:07;18.29;78.56
68648;SHT31;55632;51.962;16.116;2023-08-07T07:46:11;18.19;77.91
68648;SHT31;55632;51.962;16.116;2023-08-07T07:51:12;17.98;77.64
68648;SHT31;55632;51.962;16.116;2023-08-07T07:56:13;17.88;77.48
68648;SHT31;55632;51.962;16.116;2023-08-07T08:01:14;17.97;76.86
68648;SHT31;55632;51.962;16.116;2023-08-07T08:06:18;18.32;77.35
68648;SHT31;55632;51.962;16.116;2023-08-07T08:11:18;18.81;77.03
68648;SHT31;55632;51.962;16.116;2023-08-07T08:16:19;19.20;75.92
68648;SHT31;55632;51.962;16.116;2023-08-07T08:21:20;19.45;74.08
68648;SHT31;55632;51.962;16.116;2023-08-07T08:26:22;19.49;73.32
68648;SHT31;55632;51.962;16.116;2023-08-07T08:31:23;19.47;73.12
68648;SHT31;55632;51.962;16.116;2023-08-07T08:36:24;19.49;72.41
68648;SHT31;55632;51.962;16.116;2023-08-07T08:41:25;19.50;71.73
68648;SHT31;55632;51.962;16.116;2023-08-07T08:46:28;19.47;70.47
68648;SHT31;55632;51.962;16.116;2023-08-07T08:51:30;19.54;70.80
68648;SHT31;55632;51.962;16.116;2023-08-07T08:56:32;19.77;70.49
68648;SHT31;55632;51.962;16.116;2023-08-07T09:01:33;19.89;68.40
68648;SHT31;55632;51.962;16.116;2023-08-07T09:06:35;19.96;69.01
68648;SHT31;55632;51.962;16.116;2023-08-07T09:11:37;20.02;69.01
68648;SHT31;55632;51.962;16.116;2023-08-07T09:16:40;20.11;68.35
68648;SHT31;55632;51.962;16.116;2023-08-07T09:21:41;20.11;68.23
68648;SHT31;55632;51.962;16.116;2023-08-07T09:26:44;20.12;68.46
68648;SHT31;55632;51.962;16.116;2023-08-07T09:31:45;20.12;66.97
68648;SHT31;55632;51.962;16.116;2023-08-07T09:36:46;20.06;65.18
68648;SHT31;55632;51.962;16.116;2023-08-07T09:41:51;20.02;65.75
68648;SHT31;55632;51.962;16.116;2023-08-07T09:46:51;20.12;65.18
68648;SHT31;55632;51.962;16.116;2023-08-07T09:51:52;20.19;64.19
68648;SHT31;55632;51.962;16.116;2023-08-07T09:56:56;20.47;64.77
68648;SHT31;55632;51.962;16.116;2023-08-07T10:01:57;20.77;63.12
68648;SHT31;55632;51.962;16.116;2023-08-07T10:07:01;21.03;62.69
68648;SHT31;55632;51.962;16.116;2023-08-07T10:12:02;21.26;61.24
68648;SHT31;55632;51.962;16.116;2023-08-07T10:17:03;21.43;61.27
68648;SHT31;55632;51.962;16.116;2023-08-07T10:22:08;21.49;60.29
68648;SHT31;55632;51.962;16.116;2023-08-07T10:27:11;21.30;59.15
68648;SHT31;55632;51.962;16.116;2023-08-07T10:32:13;21.32;60.42
68648;SHT31;55632;51.962;16.116;2023-08-07T10:37:39;21.43;59.38
68648;SHT31;55632;51.962;16.116;2023-08-07T10:53:05;22.05;58.06
68648;SHT31;55632;51.962;16.116;2023-08-07T10:58:21;22.30;58.37
68648;SHT31;55632;51.962;16.116;2023-08-07T11:03:27;22.57;57.73
68648;SHT31;55632;51.962;16.116;2023-08-07T11:08:29;22.72;57.56
68648;SHT31;55632;51.962;16.116;2023-08-07T11:13:30;22.96;55.08
68648;SHT31;55632;51.962;16.116;2023-08-07T11:18:31;22.99;54.90
68648;SHT31;55632;51.962;16.116;2023-08-07T11:23:38;22.81;54.35
68648;SHT31;55632;51.962;16.116;2023-08-07T11:28:39;22.67;54.21
68648;SHT31;55632;51.962;16.116;2023-08-07T11:33:40;22.44;53.85
68648;SHT31;55632;51.962;16.116;2023-08-07T11:38:43;22.29;54.35
68648;SHT31;55632;51.962;16.116;2023-08-07T11:43:45;22.21;55.15
68648;SHT31;55632;51.962;16.116;2023-08-07T11:48:46;22.01;55.01
68648;SHT31;55632;51.962;16.116;2023-08-07T11:53:49;21.77;55.11
68648;SHT31;55632;51.962;16.116;2023-08-07T11:58:52;21.73;55.51
68648;SHT31;55632;51.962;16.116;2023-08-07T12:09:08;21.74;56.77
68648;SHT31;55632;51.962;16.116;2023-08-07T12:14:13;21.88;56.99
68648;SHT31;55632;51.962;16.116;2023-08-07T12:19:17;21.95;56.88
68648;SHT31;55632;51.962;16.116;2023-08-07T12:24:19;21.85;57.08
68648;SHT31;55632;51.962;16.116;2023-08-07T12:29:20;21.69;57.49
68648;SHT31;55632;51.962;16.116;2023-08-07T12:34:24;21.44;58.59
68648;SHT31;55632;51.962;16.116;2023-08-07T12:39:25;21.37;59.92
68648;SHT31;55632;51.962;16.116;2023-08-07T12:44:25;21.47;60.71
68648;SHT31;55632;51.962;16.116;2023-08-07T12:49:26;21.40;61.12
68648;SHT31;55632;51.962;16.116;2023-08-07T12:54:27;21.40;62.24
68648;SHT31;55632;51.962;16.116;2023-08-07T12:59:28;21.78;62.55
68648;SHT31;55632;51.962;16.116;2023-08-07T13:04:29;22.14;62.17
68648;SHT31;55632;51.962;16.116;2023-08-07T13:09:30;22.47;62.09
68648;SHT31;55632;51.962;16.116;2023-08-07T13:14:31;22.72;61.65
68648;SHT31;55632;51.962;16.116;2023-08-07T13:19:32;22.84;60.79
68648;SHT31;55632;51.962;16.116;2023-08-07T13:24:33;22.88;60.33
68648;SHT31;55632;51.962;16.116;2023-08-07T13:29:34;22.84;59.84
68648;SHT31;55632;51.962;16.116;2023-08-07T13:34:38;22.69;59.77
68648;SHT31;55632;51.962;16.116;2023-08-07T13:39:39;22.45;60.23
68648;SHT31;55632;51.962;16.116;2023-08-07T13:44:40;22.20;60.63
68648;SHT31;55632;51.962;16.116;2023-08-07T13:49:41;21.96;61.14
68648;SHT31;55632;51.962;16.116;2023-08-07T13:54:42;21.81;62.19
68648;SHT31;55632;51.962;16.116;2023-08-07T13:59:42;21.79;63.20
68648;SHT31;55632;51.962;16.116;2023-08-07T14:04:43;21.68;64.01
68648;SHT31;55632;51.962;16.116;2023-08-07T14:09:45;21.58;64.66
68648;SHT31;55632;51.962;16.116;2023-08-07T14:14:46;21.40;63.11
68648;SHT31;55632;51.962;16.116;2023-08-07T14:19:47;21.30;63.47
68648;SHT31;55632;51.962;16.116;2023-08-07T14:24:48;21.19;63.49
68648;SHT31;55632;51.962;16.116;2023-08-07T14:29:49;21.06;64.27
68648;SHT31;55632;51.962;16.116;2023-08-07T14:34:49;20.78;65.42
68648;SHT31;55632;51.962;16.116;2023-08-07T14:39:50;20.34;67.15
68648;SHT31;55632;51.962;16.116;2023-08-07T14:44:52;20.01;68.56
68648;SHT31;55632;51.962;16.116;2023-08-07T14:49:52;19.92;69.50
68648;SHT31;55632;51.962;16.116;2023-08-07T14:54:54;19.88;70.49
68648;SHT31;55632;51.962;16.116;2023-08-07T14:59:57;19.89;71.22
68648;SHT31;55632;51.962;16.116;2023-08-07T15:04:59;19.92;71.82
68648;SHT31;55632;51.962;16.116;2023-08-07T15:10:00;20.01;72.13
68648;SHT31;55632;51.962;16.116;2023-08-07T15:15:01;20.16;72.82
68648;SHT31;55632;51.962;16.116;2023-08-07T15:20:03;20.43;73.30
68648;SHT31;55632;51.962;16.116;2023-08-07T15:25:04;20.53;73.18
68648;SHT31;55632;51.962;16.116;2023-08-07T15:30:06;20.46;73.12
68648;SHT31;55632;51.962;16.116;2023-08-07T15:35:10;20.19;73.55
68648;SHT31;55632;51.962;16.116;2023-08-07T15:40:11;19.88;73.81
68648;SHT31;55632;51.962;16.116;2023-08-07T15:45:12;19.71;74.82
68648;SHT31;55632;51.962;16.116;2023-08-07T15:50:13;19.45;74.83
68648;SHT31;55632;51.962;16.116;2023-08-07T15:55:14;19.05;75.56
68648;SHT31;55632;51.962;16.116;2023-08-07T16:00:15;18.75;76.37
68648;SHT31;55632;51.962;16.116;2023-08-07T16:05:17;18.61;77.14
68648;SHT31;55632;51.962;16.116;2023-08-07T16:10:21;18.52;77.71
68648;SHT31;55632;51.962;16.116;2023-08-07T16:15:25;18.49;78.25
68648;SHT31;55632;51.962;16.116;2023-08-07T16:20:26;18.45;78.73
68648;SHT31;55632;51.962;16.116;2023-08-07T16:25:27;18.42;78.92
68648;SHT31;55632;51.962;16.116;2023-08-07T16:30:27;18.28;79.20
68648;SHT31;55632;51.962;16.116;2023-08-07T16:35:28;18.21;79.44
68648;SHT31;55632;51.962;16.116;2023-08-07T16:40:29;18.15;79.73
68648;SHT31;55632;51.962;16.116;2023-08-07T16:45:32;18.06;80.07
68648;SHT31;55632;51.962;16.116;2023-08-07T16:50:34;18.04;80.48
68648;SHT31;55632;51.962;16.116;2023-08-07T16:55:34;18.06;80.69
68648;SHT31;55632;51.962;16.116;2023-08-07T17:00:36;18.05;80.81
68648;SHT31;55632;51.962;16.116;2023-08-07T17:05:36;18.06;80.96
68648;SHT31;55632;51.962;16.116;2023-08-07T17:10:40;18.02;81.18
68648;SHT31;55632;51.962;16.116;2023-08-07T17:15:41;18.00;81.29
68648;SHT31;55632;51.962;16.116;2023-08-07T17:20:43;17.95;81.49
68648;SHT31;55632;51.962;16.116;2023-08-07T17:25:44;17.94;81.56
68648;SHT31;55632;51.962;16.116;2023-08-07T17:30:45;17.85;81.35
68648;SHT31;55632;51.962;16.116;2023-08-07T17:35:46;17.71;81.34
68648;SHT31;55632;51.962;16.116;2023-08-07T17:40:47;17.59;81.68
68648;SHT31;55632;51.962;16.116;2023-08-07T17:45:51;17.43;82.02
68648;SHT31;55632;51.962;16.116;2023-08-07T17:50:52;17.29;82.27
68648;SHT31;55632;51.962;16.116;2023-08-07T17:55:54;17.15;82.24
68648;SHT31;55632;51.962;16.116;2023-08-07T18:00:56;17.04;81.90
68648;SHT31;55632;51.962;16.116;2023-08-07T18:05:56;16.94;81.33
68648;SHT31;55632;51.962;16.116;2023-08-07T18:10:57;16.76;81.24
68648;SHT31;55632;51.962;16.116;2023-08-07T18:15:58;16.62;81.25
68648;SHT31;55632;51.962;16.116;2023-08-07T18:20:59;16.45;81.27
68648;SHT31;55632;51.962;16.116;2023-08-07T18:26:00;16.26;81.65
68648;SHT31;55632;51.962;16.116;2023-08-07T18:31:00;16.19;82.11
68648;SHT31;55632;51.962;16.116;2023-08-07T18:36:04;16.08;82.44
68648;SHT31;55632;51.962;16.116;2023-08-07T18:41:06;16.01;82.70
68648;SHT31;55632;51.962;16.116;2023-08-07T18:46:07;15.90;83.11
68648;SHT31;55632;51.962;16.116;2023-08-07T18:51:07;15.80;83.46
68648;SHT31;55632;51.962;16.116;2023-08-07T18:56:11;15.74;83.94
68648;SHT31;55632;51.962;16.116;2023-08-07T19:01:12;15.69;84.29
68648;SHT31;55632;51.962;16.116;2023-08-07T19:06:13;15.67;84.61
68648;SHT31;55632;51.962;16.116;2023-08-07T19:11:14;15.60;84.82
68648;SHT31;55632;51.962;16.116;2023-08-07T19:16:15;15.60;84.92
68648;SHT31;55632;51.962;16.116;2023-08-07T19:21:18;15.59;85.05
68648;SHT31;55632;51.962;16.116;2023-08-07T19:26:19;15.58;85.03
68648;SHT31;55632;51.962;16.116;2023-08-07T19:31:20;15.56;84.98
68648;SHT31;55632;51.962;16.116;2023-08-07T19:36:21;15.58;84.90
68648;SHT31;55632;51.962;16.116;2023-08-07T19:41:22;15.55;84.66
68648;SHT31;55632;51.962;16.116;2023-08-07T19:46:23;15.50;84.40
68648;SHT31;55632;51.962;16.116;2023-08-07T19:51:24;15.49;84.23
68648;SHT31;55632;51.962;16.116;2023-08-07T19:56:29;15.43;83.88
68648;SHT31;55632;51.962;16.116;2023-08-07T20:01:30;15.34;83.27
68648;SHT31;55632;51.962;16.116;2023-08-07T20:06:30;15.28;82.89
68648;SHT31;55632;51.962;16.116;2023-08-07T20:11:36;15.21;82.51
68648;SHT31;55632;51.962;16.116;2023-08-07T20:16:37;15.15;82.20
68648;SHT31;55632;51.962;16.116;2023-08-07T20:21:41;15.12;81.97
68648;SHT31;55632;51.962;16.116;2023-08-07T20:26:42;15.11;81.85
68648;SHT31;55632;51.962;16.116;2023-08-07T20:31:43;15.07;81.67
68648;SHT31;55632;51.962;16.116;2023-08-07T20:36:45;15.00;81.31
68648;SHT31;55632;51.962;16.116;2023-08-07T20:41:50;14.91;80.93
68648;SHT31;55632;51.962;16.116;2023-08-07T20:46:51;14.81;80.66
68648;SHT31;55632;51.962;16.116;2023-08-07T20:51:52;14.75;80.45
68648;SHT31;55632;51.962;16.116;2023-08-07T20:56:52;14.72;80.30
68648;SHT31;55632;51.962;16.116;2023-08-07T21:01:53;14.63;80.17
68648;SHT31;55632;51.962;16.116;2023-08-07T21:06:55;14.63;80.09
68648;SHT31;55632;51.962;16.116;2023-08-07T21:11:56;14.52;79.86
68648;SHT31;55632;51.962;16.116;2023-08-07T21:16:58;14.48;79.66
68648;SHT31;55632;51.962;16.116;2023-08-07T21:22:04;14.41;79.45
68648;SHT31;55632;51.962;16.116;2023-08-07T21:27:05;14.35;78.90
68648;SHT31;55632;51.962;16.116;2023-08-07T21:32:06;14.31;78.64
68648;SHT31;55632;51.962;16.116;2023-08-07T21:37:07;14.28;78.38
68648;SHT31;55632;51.962;16.116;2023-08-07T21:42:08;14.24;78.06
68648;SHT31;55632;51.962;16.116;2023-08-07T21:47:11;14.22;78.11
68648;SHT31;55632;51.962;16.116;2023-08-07T21:52:13;14.18;77.94
68648;SHT31;55632;51.962;16.116;2023-08-07T21:57:16;14.13;77.92
68648;SHT31;55632;51.962;16.116;2023-08-07T22:02:17;14.10;77.81
68648;SHT31;55632;51.962;16.116;2023-08-07T22:07:18;14.06;77.51
68648;SHT31;55632;51.962;16.116;2023-08-07T22:12:18;14.06;77.31
68648;SHT31;55632;51.962;16.116;2023-08-07T22:17:22;14.06;77.05
68648;SHT31;55632;51.962;16.116;2023-08-07T22:22:24;14.06;77.00
68648;SHT31;55632;51.962;16.116;2023-08-07T22:27:25;14.01;76.94
68648;SHT31;55632;51.962;16.116;2023-08-07T22:32:26;14.00;76.77
68648;SHT31;55632;51.962;16.116;2023-08-07T22:37:27;14.00;76.70
68648;SHT31;55632;51.962;16.116;2023-08-07T22:42:28;13.97;76.60
68648;SHT31;55632;51.962;16.116;2023-08-07T22:47:29;13.96;76.61
68648;SHT31;55632;51.962;16.116;2023-08-07T22:52:30;13.94;76.76
68648;SHT31;55632;51.962;16.116;2023-08-07T22:57:31;13.91;76.82
68648;SHT31;55632;51.962;16.116;2023-08-07T23:02:32;13.83;76.89
68648;SHT31;55632;51.962;16.116;2023-08-07T23:07:33;13.80;76.98
68648;SHT31;55632;51.962;16.116;2023-08-07T23:12:34;13.75;76.95
68648;SHT31;55632;51.962;16.116;2023-08-07T23:17:38;13.76;76.87
68648;SHT31;55632;51.962;16.116;2023-08-07T23:22:39;13.70;76.83
68648;SHT31;55632;51.962;16.116;2023-08-07T23:27:42;13.73;76.39
68648;SHT31;55632;51.962;16.116;2023-08-07T23:32:43;13.79;75.97
68648;SHT31;55632;51.962;16.116;2023-08-07T23:37:44;13.80;75.65
68648;SHT31;55632;51.962;16.116;2023-08-07T23:42:45;13.82;75.63
68648;SHT31;55632;51.962;16.116;2023-08-07T23:47:46;13.77;75.66
68648;SHT31;55632;51.962;16.116;2023-08-07T23:52:46;13.70;75.82
68648;SHT31;55632;51.962;16.116;2023-08-07T23:57:47;13.68;75.96
